createdAt,value
2022-11-26T10:03:36.821Z,40.47
2022-11-26T10:06:26.079Z,42.63
2022-11-26T10:09:20.996Z,43.90
2022-11-26T10:12:06.649Z,52.55
2022-11-26T10:14:52.348Z,44.50
2022-11-26T10:17:50.282Z,42.57
2022-11-26T10:20:23.316Z,44.07
2022-11-26T10:22:57.405Z,43.40
2022-11-26T10:25:28.599Z,44.37
2022-11-26T10:27:59.495Z,44.57
2022-11-26T10:30:29.248Z,44.97
2022-11-26T10:32:58.493Z,44.67
2022-11-26T10:35:29.155Z,43.40
2022-11-26T10:37:57.617Z,45.90
2022-11-26T10:40:27.598Z,43.47
2022-11-26T10:43:10.567Z,44.47
2022-11-26T10:45:54.017Z,41.93
2022-11-26T10:48:26.508Z,49.72
2022-11-26T10:51:07.546Z,50.15
2022-11-26T10:53:56.503Z,48.55
2022-11-26T10:56:31.955Z,50.50
2022-11-26T10:59:04.577Z,49.30
2022-11-26T11:01:39.672Z,50.60
2022-11-26T11:04:39.595Z,50.45
2022-11-26T11:07:11.798Z,52.80
2022-11-26T11:09:39.499Z,48.35
2022-11-26T11:12:17.955Z,48.25
2022-11-26T11:14:46.337Z,48.67
2022-11-26T11:17:43.529Z,46.50
2022-11-26T11:20:16.809Z,47.43
2022-11-26T11:22:47.798Z,47.20
2022-11-26T11:36:02.874Z,44.25
2022-11-26T11:38:36.385Z,45.00
2022-11-26T11:41:21.659Z,43.70
2022-11-26T11:43:49.568Z,43.17
2022-11-26T11:46:31.999Z,40.90
2022-11-26T14:24:55.119Z,23.33
2022-11-26T14:27:34.579Z,19.90
2022-11-26T14:30:07.418Z,20.17
2022-11-26T14:32:39.799Z,22.58
2022-11-26T14:35:30.611Z,19.47
2022-11-26T14:37:59.930Z,19.37
2022-11-26T14:40:36.927Z,17.87
2022-11-26T14:43:19.517Z,18.30
2022-11-26T14:45:58.809Z,17.80
2022-11-26T14:48:28.482Z,18.87
2022-11-26T14:50:58.403Z,17.20
2022-11-26T14:53:29.242Z,17.70
2022-11-26T14:55:57.190Z,16.53
2022-11-26T14:58:55.707Z,16.83
2022-11-26T15:01:25.655Z,15.87
2022-11-26T15:03:59.877Z,17.43
2022-11-26T15:06:38.574Z,16.43
2022-11-26T15:09:12.671Z,17.23
2022-11-26T15:11:49.450Z,17.40
2022-11-26T15:14:31.834Z,16.53
2022-11-26T15:17:02.769Z,17.17
2022-11-26T15:19:34.708Z,15.97
2022-11-26T15:34:57.421Z,16.20
2022-11-26T15:37:24.548Z,15.63
2022-11-26T15:40:21.375Z,15.33
2022-11-26T15:42:49.821Z,14.53
2022-11-26T15:45:20.065Z,16.13
2022-11-26T15:47:55.379Z,15.93
2022-11-26T15:50:32.611Z,18.37
2022-11-26T15:53:14.486Z,17.83
2022-11-26T15:55:47.190Z,15.43
2022-11-26T15:58:26.480Z,15.40
2022-11-26T16:00:57.625Z,17.93
2022-11-26T16:03:45.722Z,16.87
2022-11-26T16:06:35.300Z,17.07
2022-11-26T16:09:07.664Z,14.90
2022-11-26T16:11:37.113Z,15.70
2022-11-26T16:14:33.505Z,16.67
2022-11-26T16:17:08.303Z,15.57
2022-11-26T16:19:36.720Z,15.20
2022-11-26T16:22:06.018Z,20.87
2022-11-26T16:24:42.678Z,15.17
2022-11-26T16:27:18.522Z,15.43
2022-11-26T16:29:45.683Z,13.07
2022-11-26T16:32:17.681Z,12.83
2022-11-26T16:34:45.320Z,13.83
2022-11-26T16:37:25.683Z,14.23
2022-11-26T16:40:00.946Z,13.83
2022-11-26T16:42:30.268Z,12.70
2022-11-26T16:45:01.279Z,13.37
2022-11-26T16:47:35.406Z,14.20
2022-11-26T16:52:43.731Z,18.33
2022-11-26T16:55:15.735Z,20.13
2022-11-26T16:57:46.544Z,19.07
2022-11-26T17:00:22.187Z,15.53
2022-11-26T17:02:49.928Z,12.73
2022-11-26T17:05:17.990Z,12.90
2022-11-26T17:07:49.188Z,15.13
2022-11-26T17:10:21.821Z,13.43
2022-11-26T17:12:49.982Z,13.57
2022-11-26T17:15:17.323Z,18.20
2022-11-26T17:17:44.632Z,17.60
2022-11-26T17:20:17.951Z,20.63
2022-11-26T17:22:45.510Z,22.30
2022-11-26T17:25:13.355Z,23.93
2022-11-26T17:27:41.681Z,21.77
2022-11-26T17:30:17.298Z,21.73
2022-11-26T17:32:44.165Z,20.30
2022-11-26T17:35:11.355Z,16.50
2022-11-26T17:37:38.276Z,18.83
2022-11-26T17:40:12.076Z,17.03
2022-11-26T17:42:39.048Z,18.00
2022-11-26T17:45:06.614Z,19.10
2022-11-26T17:47:33.453Z,18.20
2022-11-26T17:50:00.326Z,17.70
2022-11-26T17:52:27.284Z,17.90
2022-11-26T17:54:54.137Z,16.60
2022-11-26T17:57:22.952Z,15.10
2022-11-26T17:59:49.891Z,14.77
2022-11-26T18:02:16.753Z,15.33
2022-11-26T18:04:43.630Z,14.77
2022-11-26T18:07:13.154Z,14.23
2022-11-26T18:09:41.626Z,14.67
2022-11-26T18:12:19.041Z,15.17
2022-11-26T18:14:50.203Z,14.17
2022-11-26T18:17:17.088Z,13.93
